Ralph Wenz Field Pinedale US
ICAO: KPNA
IATA: PNA
Category: Medium
Scheduled Services: No

Elevation: 7102 ft
TransAlt. 18000 ft.

Airport Communications:
AWOS 3:118.325
SALT LAKE CITY CNTR:128.35
CTAF/UNICOM:122.8

KPNA Zoom In..

Runways:

(A) RW 11 length 8900 ft width 100 ft
---- / hdg 110

(B) RW 29 length 8900 ft width 100 ft
---- / hdg 290

Location; KPNA
Day. 10 / Time. 11.35 Zulu
* Altimeter: 30.05
* Temperature: -05° c. -23°f.
* Wind from: 270° Speed 05 kn.
Dewpoint: -07° c.
Visibility: 10 Statute Miles.
Clouds: Clear (automated report).

KPNA 101135Z AUTO 27005KT 10SM CLR M05/M07 A3005 RMK AO2


Wind From 270°
Speed 05 kn.

 
 
jpsmedia worldairports.se 2020   terms of use